sensor_id;sensor_type;location;lat;lon;timestamp;P1;durP1;ratioP1;P2;durP2;ratioP2
50779;SDS011;36748;37.428;-121.972;2023-03-01T00:00:40;1.00;;;0.43;;
50779;SDS011;36748;37.428;-121.972;2023-03-01T00:03:06;0.40;;;0.20;;
50779;SDS011;36748;37.428;-121.972;2023-03-01T00:05:33;0.43;;;0.30;;
50779;SDS011;36748;37.428;-121.972;2023-03-01T00:07:59;0.70;;;0.30;;
50779;SDS011;36748;37.428;-121.972;2023-03-01T00:10:25;0.70;;;0.40;;
50779;SDS011;36748;37.428;-121.972;2023-03-01T00:12:52;0.20;;;0.20;;
50779;SDS011;36748;37.428;-121.972;2023-03-01T00:15:18;0.88;;;0.30;;
50779;SDS011;36748;37.428;-121.972;2023-03-01T00:17:44;0.55;;;0.30;;
50779;SDS011;36748;37.428;-121.972;2023-03-01T00:20:11;0.77;;;0.30;;
50779;SDS011;36748;37.428;-121.972;2023-03-01T00:22:37;0.93;;;0.30;;
50779;SDS011;36748;37.428;-121.972;2023-03-01T00:25:04;0.17;;;0.17;;
50779;SDS011;36748;37.428;-121.972;2023-03-01T00:27:30;0.40;;;0.30;;
50779;SDS011;36748;37.428;-121.972;2023-03-01T00:29:56;0.55;;;0.28;;
50779;SDS011;36748;37.428;-121.972;2023-03-01T00:32:23;1.23;;;0.30;;
50779;SDS011;36748;37.428;-121.972;2023-03-01T00:34:49;0.35;;;0.20;;
50779;SDS011;36748;37.428;-121.972;2023-03-01T00:37:20;0.65;;;0.30;;
50779;SDS011;36748;37.428;-121.972;2023-03-01T00:39:48;0.52;;;0.22;;
50779;SDS011;36748;37.428;-121.972;2023-03-01T00:42:14;0.68;;;0.35;;
50779;SDS011;36748;37.428;-121.972;2023-03-01T00:44:41;0.75;;;0.32;;
50779;SDS011;36748;37.428;-121.972;2023-03-01T00:47:07;0.40;;;0.30;;
50779;SDS011;36748;37.428;-121.972;2023-03-01T00:49:34;0.22;;;0.20;;
50779;SDS011;36748;37.428;-121.972;2023-03-01T00:52:01;0.15;;;0.10;;
50779;SDS011;36748;37.428;-121.972;2023-03-01T00:54:27;0.40;;;0.20;;
50779;SDS011;36748;37.428;-121.972;2023-03-01T00:56:53;0.15;;;0.15;;
50779;SDS011;36748;37.428;-121.972;2023-03-01T00:59:20;0.52;;;0.20;;
50779;SDS011;36748;37.428;-121.972;2023-03-01T01:01:46;0.22;;;0.10;;
50779;SDS011;36748;37.428;-121.972;2023-03-01T01:04:12;0.43;;;0.30;;
50779;SDS011;36748;37.428;-121.972;2023-03-01T01:06:40;0.40;;;0.22;;
50779;SDS011;36748;37.428;-121.972;2023-03-01T01:09:09;0.10;;;0.10;;
50779;SDS011;36748;37.428;-121.972;2023-03-01T01:11:43;0.30;;;0.20;;
50779;SDS011;36748;37.428;-121.972;2023-03-01T01:14:10;0.57;;;0.20;;
50779;SDS011;36748;37.428;-121.972;2023-03-01T01:16:36;0.40;;;0.20;;
50779;SDS011;36748;37.428;-121.972;2023-03-01T01:19:02;0.95;;;0.43;;
50779;SDS011;36748;37.428;-121.972;2023-03-01T01:21:29;0.63;;;0.40;;
50779;SDS011;36748;37.428;-121.972;2023-03-01T01:23:55;0.77;;;0.32;;
50779;SDS011;36748;37.428;-121.972;2023-03-01T01:26:23;0.32;;;0.20;;
50779;SDS011;36748;37.428;-121.972;2023-03-01T01:28:52;0.25;;;0.20;;
50779;SDS011;36748;37.428;-121.972;2023-03-01T01:31:19;0.55;;;0.22;;
50779;SDS011;36748;37.428;-121.972;2023-03-01T01:33:45;0.32;;;0.20;;
50779;SDS011;36748;37.428;-121.972;2023-03-01T01:36:12;0.20;;;0.20;;
50779;SDS011;36748;37.428;-121.972;2023-03-01T01:38:38;0.40;;;0.22;;
50779;SDS011;36748;37.428;-121.972;2023-03-01T01:41:07;0.20;;;0.20;;
50779;SDS011;36748;37.428;-121.972;2023-03-01T01:43:43;0.75;;;0.20;;
50779;SDS011;36748;37.428;-121.972;2023-03-01T01:46:21;0.35;;;0.20;;
50779;SDS011;36748;37.428;-121.972;2023-03-01T01:48:55;0.20;;;0.20;;
50779;SDS011;36748;37.428;-121.972;2023-03-01T01:51:35;0.20;;;0.17;;
50779;SDS011;36748;37.428;-121.972;2023-03-01T01:54:26;0.63;;;0.25;;
50779;SDS011;36748;37.428;-121.972;2023-03-01T01:56:55;0.22;;;0.15;;
50779;SDS011;36748;37.428;-121.972;2023-03-01T01:59:23;0.20;;;0.08;;
50779;SDS011;36748;37.428;-121.972;2023-03-01T02:01:54;0.73;;;0.20;;
50779;SDS011;36748;37.428;-121.972;2023-03-01T02:04:20;0.63;;;0.30;;
50779;SDS011;36748;37.428;-121.972;2023-03-01T02:07:29;0.68;;;0.40;;
50779;SDS011;36748;37.428;-121.972;2023-03-01T02:09:47;0.35;;;0.20;;
50779;SDS011;36748;37.428;-121.972;2023-03-01T02:12:16;2.53;;;0.50;;
50779;SDS011;36748;37.428;-121.972;2023-03-01T02:14:44;0.35;;;0.25;;
50779;SDS011;36748;37.428;-121.972;2023-03-01T02:17:11;0.20;;;0.10;;
50779;SDS011;36748;37.428;-121.972;2023-03-01T02:19:52;0.32;;;0.20;;
50779;SDS011;36748;37.428;-121.972;2023-03-01T02:22:28;0.28;;;0.10;;
50779;SDS011;36748;37.428;-121.972;2023-03-01T02:25:03;0.40;;;0.20;;
50779;SDS011;36748;37.428;-121.972;2023-03-01T02:28:08;0.75;;;0.28;;
50779;SDS011;36748;37.428;-121.972;2023-03-01T02:30:42;0.38;;;0.20;;
50779;SDS011;36748;37.428;-121.972;2023-03-01T02:33:28;0.90;;;0.28;;
50779;SDS011;36748;37.428;-121.972;2023-03-01T02:35:58;0.75;;;0.22;;
50779;SDS011;36748;37.428;-121.972;2023-03-01T02:38:36;0.40;;;0.20;;
50779;SDS011;36748;37.428;-121.972;2023-03-01T02:41:02;0.38;;;0.20;;
50779;SDS011;36748;37.428;-121.972;2023-03-01T02:43:31;0.20;;;0.20;;
50779;SDS011;36748;37.428;-121.972;2023-03-01T02:45:58;0.32;;;0.20;;
50779;SDS011;36748;37.428;-121.972;2023-03-01T02:48:25;0.30;;;0.20;;
50779;SDS011;36748;37.428;-121.972;2023-03-01T02:51:27;0.13;;;0.10;;
50779;SDS011;36748;37.428;-121.972;2023-03-01T02:56:28;0.73;;;0.30;;
50779;SDS011;36748;37.428;-121.972;2023-03-01T02:58:55;0.20;;;0.20;;
50779;SDS011;36748;37.428;-121.972;2023-03-01T03:01:26;0.60;;;0.20;;
50779;SDS011;36748;37.428;-121.972;2023-03-01T03:04:02;0.30;;;0.20;;
50779;SDS011;36748;37.428;-121.972;2023-03-01T03:06:49;0.22;;;0.10;;
50779;SDS011;36748;37.428;-121.972;2023-03-01T03:09:16;0.25;;;0.25;;
50779;SDS011;36748;37.428;-121.972;2023-03-01T03:11:43;1.10;;;0.30;;
50779;SDS011;36748;37.428;-121.972;2023-03-01T03:14:13;0.90;;;0.28;;
50779;SDS011;36748;37.428;-121.972;2023-03-01T03:16:41;1.05;;;0.20;;
50779;SDS011;36748;37.428;-121.972;2023-03-01T03:19:08;0.22;;;0.15;;
50779;SDS011;36748;37.428;-121.972;2023-03-01T03:21:35;0.70;;;0.40;;
50779;SDS011;36748;37.428;-121.972;2023-03-01T03:24:01;0.30;;;0.20;;
50779;SDS011;36748;37.428;-121.972;2023-03-01T03:26:28;0.68;;;0.30;;
50779;SDS011;36748;37.428;-121.972;2023-03-01T03:28:55;0.70;;;0.40;;
50779;SDS011;36748;37.428;-121.972;2023-03-01T03:31:21;0.70;;;0.52;;
50779;SDS011;36748;37.428;-121.972;2023-03-01T03:33:47;1.02;;;0.38;;
50779;SDS011;36748;37.428;-121.972;2023-03-01T03:36:17;0.57;;;0.28;;
50779;SDS011;36748;37.428;-121.972;2023-03-01T03:38:45;0.30;;;0.20;;
50779;SDS011;36748;37.428;-121.972;2023-03-01T03:41:11;0.60;;;0.35;;
50779;SDS011;36748;37.428;-121.972;2023-03-01T03:43:39;0.60;;;0.20;;
50779;SDS011;36748;37.428;-121.972;2023-03-01T03:46:08;0.73;;;0.20;;
50779;SDS011;36748;37.428;-121.972;2023-03-01T03:48:35;0.20;;;0.20;;
50779;SDS011;36748;37.428;-121.972;2023-03-01T03:51:06;0.47;;;0.35;;
50779;SDS011;36748;37.428;-121.972;2023-03-01T03:53:33;0.35;;;0.20;;
50779;SDS011;36748;37.428;-121.972;2023-03-01T03:55:59;0.22;;;0.20;;
50779;SDS011;36748;37.428;-121.972;2023-03-01T03:58:25;0.50;;;0.20;;
50779;SDS011;36748;37.428;-121.972;2023-03-01T04:00:53;0.22;;;0.20;;
50779;SDS011;36748;37.428;-121.972;2023-03-01T04:03:25;0.28;;;0.20;;
50779;SDS011;36748;37.428;-121.972;2023-03-01T04:05:52;0.32;;;0.10;;
50779;SDS011;36748;37.428;-121.972;2023-03-01T04:08:22;0.50;;;0.30;;
50779;SDS011;36748;37.428;-121.972;2023-03-01T04:10:50;0.20;;;0.10;;
50779;SDS011;36748;37.428;-121.972;2023-03-01T04:13:18;0.28;;;0.28;;
50779;SDS011;36748;37.428;-121.972;2023-03-01T04:15:48;0.30;;;0.20;;
50779;SDS011;36748;37.428;-121.972;2023-03-01T04:18:16;0.40;;;0.28;;
50779;SDS011;36748;37.428;-121.972;2023-03-01T04:20:45;0.50;;;0.30;;
50779;SDS011;36748;37.428;-121.972;2023-03-01T04:23:13;0.85;;;0.30;;
50779;SDS011;36748;37.428;-121.972;2023-03-01T04:25:49;1.27;;;0.30;;
50779;SDS011;36748;37.428;-121.972;2023-03-01T04:28:24;0.63;;;0.30;;
50779;SDS011;36748;37.428;-121.972;2023-03-01T04:30:55;0.90;;;0.47;;
50779;SDS011;36748;37.428;-121.972;2023-03-01T04:33:23;0.45;;;0.20;;
50779;SDS011;36748;37.428;-121.972;2023-03-01T04:35:50;1.05;;;0.30;;
50779;SDS011;36748;37.428;-121.972;2023-03-01T04:38:17;1.08;;;0.40;;
50779;SDS011;36748;37.428;-121.972;2023-03-01T04:40:44;1.00;;;0.30;;
50779;SDS011;36748;37.428;-121.972;2023-03-01T04:43:11;0.47;;;0.20;;
50779;SDS011;36748;37.428;-121.972;2023-03-01T04:45:40;0.82;;;0.35;;
50779;SDS011;36748;37.428;-121.972;2023-03-01T04:48:07;0.50;;;0.30;;
50779;SDS011;36748;37.428;-121.972;2023-03-01T04:50:34;1.25;;;0.40;;
50779;SDS011;36748;37.428;-121.972;2023-03-01T04:53:00;0.32;;;0.20;;
50779;SDS011;36748;37.428;-121.972;2023-03-01T04:55:27;0.43;;;0.22;;
50779;SDS011;36748;37.428;-121.972;2023-03-01T04:57:54;0.32;;;0.22;;
50779;SDS011;36748;37.428;-121.972;2023-03-01T05:00:21;0.85;;;0.22;;
50779;SDS011;36748;37.428;-121.972;2023-03-01T05:02:52;0.45;;;0.30;;
50779;SDS011;36748;37.428;-121.972;2023-03-01T05:05:20;0.95;;;0.22;;
50779;SDS011;36748;37.428;-121.972;2023-03-01T05:07:52;0.88;;;0.30;;
50779;SDS011;36748;37.428;-121.972;2023-03-01T05:10:19;0.73;;;0.20;;
50779;SDS011;36748;37.428;-121.972;2023-03-01T05:12:45;0.85;;;0.28;;
50779;SDS011;36748;37.428;-121.972;2023-03-01T05:15:12;0.95;;;0.30;;
50779;SDS011;36748;37.428;-121.972;2023-03-01T05:17:39;0.80;;;0.38;;
50779;SDS011;36748;37.428;-121.972;2023-03-01T05:20:05;0.80;;;0.40;;
50779;SDS011;36748;37.428;-121.972;2023-03-01T05:22:35;1.00;;;0.38;;
50779;SDS011;36748;37.428;-121.972;2023-03-01T05:25:02;0.40;;;0.20;;
50779;SDS011;36748;37.428;-121.972;2023-03-01T05:27:29;0.52;;;0.40;;
50779;SDS011;36748;37.428;-121.972;2023-03-01T05:29:56;0.52;;;0.20;;
50779;SDS011;36748;37.428;-121.972;2023-03-01T05:32:22;0.73;;;0.40;;
50779;SDS011;36748;37.428;-121.972;2023-03-01T05:35:09;0.30;;;0.20;;
50779;SDS011;36748;37.428;-121.972;2023-03-01T05:37:40;0.82;;;0.40;;
50779;SDS011;36748;37.428;-121.972;2023-03-01T05:40:10;0.38;;;0.20;;
50779;SDS011;36748;37.428;-121.972;2023-03-01T05:42:58;0.35;;;0.30;;
50779;SDS011;36748;37.428;-121.972;2023-03-01T05:45:26;0.70;;;0.30;;
50779;SDS011;36748;37.428;-121.972;2023-03-01T05:47:53;0.10;;;0.10;;
50779;SDS011;36748;37.428;-121.972;2023-03-01T05:50:21;0.20;;;0.10;;
50779;SDS011;36748;37.428;-121.972;2023-03-01T05:52:51;0.60;;;0.28;;
50779;SDS011;36748;37.428;-121.972;2023-03-01T05:55:22;0.10;;;0.10;;
50779;SDS011;36748;37.428;-121.972;2023-03-01T05:57:49;0.10;;;0.10;;
50779;SDS011;36748;37.428;-121.972;2023-03-01T06:00:17;0.17;;;0.10;;
50779;SDS011;36748;37.428;-121.972;2023-03-01T06:02:44;0.55;;;0.20;;
50779;SDS011;36748;37.428;-121.972;2023-03-01T06:05:11;0.20;;;0.10;;
50779;SDS011;36748;37.428;-121.972;2023-03-01T06:07:40;0.60;;;0.40;;
50779;SDS011;36748;37.428;-121.972;2023-03-01T06:10:07;0.47;;;0.20;;
50779;SDS011;36748;37.428;-121.972;2023-03-01T06:12:36;0.25;;;0.10;;
50779;SDS011;36748;37.428;-121.972;2023-03-01T06:15:03;0.03;;;0.00;;
50779;SDS011;36748;37.428;-121.972;2023-03-01T06:17:31;0.17;;;0.15;;
50779;SDS011;36748;37.428;-121.972;2023-03-01T06:19:58;0.13;;;0.10;;
50779;SDS011;36748;37.428;-121.972;2023-03-01T06:22:24;0.20;;;0.10;;
50779;SDS011;36748;37.428;-121.972;2023-03-01T06:24:50;0.50;;;0.20;;
50779;SDS011;36748;37.428;-121.972;2023-03-01T06:27:17;0.35;;;0.20;;
50779;SDS011;36748;37.428;-121.972;2023-03-01T06:29:43;0.20;;;0.10;;
50779;SDS011;36748;37.428;-121.972;2023-03-01T06:32:09;0.55;;;0.20;;
50779;SDS011;36748;37.428;-121.972;2023-03-01T06:34:35;0.15;;;0.15;;
50779;SDS011;36748;37.428;-121.972;2023-03-01T06:37:02;0.00;;;0.00;;
50779;SDS011;36748;37.428;-121.972;2023-03-01T06:39:30;0.38;;;0.10;;
50779;SDS011;36748;37.428;-121.972;2023-03-01T06:41:57;0.32;;;0.13;;
50779;SDS011;36748;37.428;-121.972;2023-03-01T06:44:23;0.20;;;0.10;;
50779;SDS011;36748;37.428;-121.972;2023-03-01T06:46:49;0.30;;;0.10;;
50779;SDS011;36748;37.428;-121.972;2023-03-01T06:49:16;0.28;;;0.28;;
50779;SDS011;36748;37.428;-121.972;2023-03-01T06:51:43;0.10;;;0.10;;
50779;SDS011;36748;37.428;-121.972;2023-03-01T06:54:10;0.40;;;0.20;;
50779;SDS011;36748;37.428;-121.972;2023-03-01T06:56:36;0.82;;;0.28;;
50779;SDS011;36748;37.428;-121.972;2023-03-01T06:59:02;0.20;;;0.20;;
50779;SDS011;36748;37.428;-121.972;2023-03-01T07:01:29;0.28;;;0.17;;
50779;SDS011;36748;37.428;-121.972;2023-03-01T07:03:56;0.77;;;0.22;;
50779;SDS011;36748;37.428;-121.972;2023-03-01T07:06:22;0.22;;;0.10;;
50779;SDS011;36748;37.428;-121.972;2023-03-01T07:08:49;0.10;;;0.10;;
50779;SDS011;36748;37.428;-121.972;2023-03-01T07:11:15;0.17;;;0.15;;
50779;SDS011;36748;37.428;-121.972;2023-03-01T07:13:41;0.40;;;0.20;;
50779;SDS011;36748;37.428;-121.972;2023-03-01T07:16:08;0.17;;;0.10;;
50779;SDS011;36748;37.428;-121.972;2023-03-01T07:18:34;0.20;;;0.20;;
50779;SDS011;36748;37.428;-121.972;2023-03-01T07:21:07;0.30;;;0.10;;
50779;SDS011;36748;37.428;-121.972;2023-03-01T07:23:34;0.28;;;0.10;;
50779;SDS011;36748;37.428;-121.972;2023-03-01T07:26:00;0.25;;;0.13;;
50779;SDS011;36748;37.428;-121.972;2023-03-01T07:28:27;1.23;;;0.40;;
50779;SDS011;36748;37.428;-121.972;2023-03-01T07:30:53;0.20;;;0.20;;
50779;SDS011;36748;37.428;-121.972;2023-03-01T07:33:20;0.40;;;0.20;;
50779;SDS011;36748;37.428;-121.972;2023-03-01T07:35:47;0.75;;;0.20;;
50779;SDS011;36748;37.428;-121.972;2023-03-01T07:38:13;0.10;;;0.10;;
50779;SDS011;36748;37.428;-121.972;2023-03-01T07:40:39;0.40;;;0.25;;
50779;SDS011;36748;37.428;-121.972;2023-03-01T07:43:06;0.25;;;0.20;;
50779;SDS011;36748;37.428;-121.972;2023-03-01T07:45:32;0.10;;;0.08;;
50779;SDS011;36748;37.428;-121.972;2023-03-01T07:47:58;0.60;;;0.25;;
50779;SDS011;36748;37.428;-121.972;2023-03-01T07:50:25;0.50;;;0.20;;
50779;SDS011;36748;37.428;-121.972;2023-03-01T07:52:51;0.32;;;0.08;;
50779;SDS011;36748;37.428;-121.972;2023-03-01T07:55:18;0.50;;;0.28;;
50779;SDS011;36748;37.428;-121.972;2023-03-01T07:57:45;0.28;;;0.20;;
50779;SDS011;36748;37.428;-121.972;2023-03-01T08:00:11;1.35;;;0.40;;
50779;SDS011;36748;37.428;-121.972;2023-03-01T08:02:38;0.50;;;0.25;;
50779;SDS011;36748;37.428;-121.972;2023-03-01T08:05:05;0.20;;;0.17;;
50779;SDS011;36748;37.428;-121.972;2023-03-01T08:07:32;0.85;;;0.30;;
50779;SDS011;36748;37.428;-121.972;2023-03-01T08:09:59;0.73;;;0.38;;
50779;SDS011;36748;37.428;-121.972;2023-03-01T08:12:25;0.20;;;0.10;;
50779;SDS011;36748;37.428;-121.972;2023-03-01T08:14:53;0.28;;;0.20;;
50779;SDS011;36748;37.428;-121.972;2023-03-01T08:17:20;0.20;;;0.20;;
50779;SDS011;36748;37.428;-121.972;2023-03-01T08:19:46;0.93;;;0.32;;
50779;SDS011;36748;37.428;-121.972;2023-03-01T08:22:12;0.30;;;0.20;;
50779;SDS011;36748;37.428;-121.972;2023-03-01T08:24:38;1.13;;;0.30;;
50779;SDS011;36748;37.428;-121.972;2023-03-01T08:27:05;0.30;;;0.22;;
50779;SDS011;36748;37.428;-121.972;2023-03-01T08:29:31;0.80;;;0.25;;
50779;SDS011;36748;37.428;-121.972;2023-03-01T08:31:58;1.20;;;0.38;;
50779;SDS011;36748;37.428;-121.972;2023-03-01T08:34:24;0.98;;;0.20;;
50779;SDS011;36748;37.428;-121.972;2023-03-01T08:36:51;1.10;;;0.28;;
50779;SDS011;36748;37.428;-121.972;2023-03-01T08:39:18;0.98;;;0.50;;
50779;SDS011;36748;37.428;-121.972;2023-03-01T08:41:45;0.65;;;0.28;;
50779;SDS011;36748;37.428;-121.972;2023-03-01T08:44:12;0.68;;;0.30;;
50779;SDS011;36748;37.428;-121.972;2023-03-01T08:46:41;1.02;;;0.30;;
50779;SDS011;36748;37.428;-121.972;2023-03-01T08:49:09;0.85;;;0.30;;
50779;SDS011;36748;37.428;-121.972;2023-03-01T08:51:37;0.43;;;0.20;;
50779;SDS011;36748;37.428;-121.972;2023-03-01T08:54:04;1.85;;;0.40;;
50779;SDS011;36748;37.428;-121.972;2023-03-01T08:56:38;0.20;;;0.20;;
50779;SDS011;36748;37.428;-121.972;2023-03-01T08:59:04;0.82;;;0.35;;
50779;SDS011;36748;37.428;-121.972;2023-03-01T09:01:31;0.40;;;0.30;;
50779;SDS011;36748;37.428;-121.972;2023-03-01T09:03:57;0.82;;;0.30;;
50779;SDS011;36748;37.428;-121.972;2023-03-01T09:06:23;0.55;;;0.30;;
50779;SDS011;36748;37.428;-121.972;2023-03-01T09:08:50;0.40;;;0.20;;
50779;SDS011;36748;37.428;-121.972;2023-03-01T09:11:18;1.02;;;0.40;;
50779;SDS011;36748;37.428;-121.972;2023-03-01T09:13:46;0.50;;;0.30;;
50779;SDS011;36748;37.428;-121.972;2023-03-01T09:16:14;0.80;;;0.30;;
50779;SDS011;36748;37.428;-121.972;2023-03-01T09:18:42;0.55;;;0.35;;
50779;SDS011;36748;37.428;-121.972;2023-03-01T09:21:10;0.65;;;0.30;;
50779;SDS011;36748;37.428;-121.972;2023-03-01T09:23:39;0.95;;;0.40;;
50779;SDS011;36748;37.428;-121.972;2023-03-01T09:26:07;0.73;;;0.30;;
50779;SDS011;36748;37.428;-121.972;2023-03-01T09:28:35;0.35;;;0.20;;
50779;SDS011;36748;37.428;-121.972;2023-03-01T09:31:02;0.52;;;0.30;;
50779;SDS011;36748;37.428;-121.972;2023-03-01T09:33:29;0.40;;;0.20;;
50779;SDS011;36748;37.428;-121.972;2023-03-01T09:36:00;0.45;;;0.30;;
50779;SDS011;36748;37.428;-121.972;2023-03-01T09:38:28;0.70;;;0.30;;
50779;SDS011;36748;37.428;-121.972;2023-03-01T09:40:55;1.15;;;0.45;;
50779;SDS011;36748;37.428;-121.972;2023-03-01T09:43:37;0.77;;;0.43;;
50779;SDS011;36748;37.428;-121.972;2023-03-01T09:46:11;0.80;;;0.38;;
50779;SDS011;36748;37.428;-121.972;2023-03-01T09:48:43;0.70;;;0.50;;
50779;SDS011;36748;37.428;-121.972;2023-03-01T09:51:29;2.10;;;0.43;;
50779;SDS011;36748;37.428;-121.972;2023-03-01T09:54:04;0.68;;;0.40;;
50779;SDS011;36748;37.428;-121.972;2023-03-01T09:56:39;0.60;;;0.32;;
50779;SDS011;36748;37.428;-121.972;2023-03-01T10:01:55;0.68;;;0.38;;
50779;SDS011;36748;37.428;-121.972;2023-03-01T10:07:15;1.95;;;1.05;;
50779;SDS011;36748;37.428;-121.972;2023-03-01T10:09:43;0.80;;;0.40;;
50779;SDS011;36748;37.428;-121.972;2023-03-01T10:12:11;0.40;;;0.35;;
50779;SDS011;36748;37.428;-121.972;2023-03-01T10:19:50;1.25;;;0.40;;
50779;SDS011;36748;37.428;-121.972;2023-03-01T10:22:21;1.80;;;0.20;;
50779;SDS011;36748;37.428;-121.972;2023-03-01T10:24:57;0.80;;;0.40;;
50779;SDS011;36748;37.428;-121.972;2023-03-01T10:32:38;0.22;;;0.10;;
50779;SDS011;36748;37.428;-121.972;2023-03-01T10:35:21;1.10;;;0.40;;
50779;SDS011;36748;37.428;-121.972;2023-03-01T10:38:11;1.13;;;0.45;;
50779;SDS011;36748;37.428;-121.972;2023-03-01T10:40:54;2.08;;;0.45;;
50779;SDS011;36748;37.428;-121.972;2023-03-01T10:43:25;1.23;;;0.50;;
50779;SDS011;36748;37.428;-121.972;2023-03-01T10:45:54;0.98;;;0.47;;
50779;SDS011;36748;37.428;-121.972;2023-03-01T10:48:24;1.52;;;0.40;;
50779;SDS011;36748;37.428;-121.972;2023-03-01T10:53:37;0.65;;;0.30;;
50779;SDS011;36748;37.428;-121.972;2023-03-01T10:56:08;0.70;;;0.40;;
50779;SDS011;36748;37.428;-121.972;2023-03-01T10:58:36;1.00;;;0.40;;
50779;SDS011;36748;37.428;-121.972;2023-03-01T11:01:05;1.10;;;0.40;;
50779;SDS011;36748;37.428;-121.972;2023-03-01T11:04:34;0.77;;;0.40;;
50779;SDS011;36748;37.428;-121.972;2023-03-01T11:06:42;0.60;;;0.40;;
50779;SDS011;36748;37.428;-121.972;2023-03-01T11:09:19;1.10;;;0.40;;
50779;SDS011;36748;37.428;-121.972;2023-03-01T11:11:54;0.28;;;0.25;;
50779;SDS011;36748;37.428;-121.972;2023-03-01T11:14:25;0.47;;;0.40;;
50779;SDS011;36748;37.428;-121.972;2023-03-01T11:17:00;1.92;;;0.43;;
50779;SDS011;36748;37.428;-121.972;2023-03-01T11:19:31;0.43;;;0.30;;
50779;SDS011;36748;37.428;-121.972;2023-03-01T11:22:14;0.70;;;0.45;;
50779;SDS011;36748;37.428;-121.972;2023-03-01T11:24:46;0.65;;;0.45;;
50779;SDS011;36748;37.428;-121.972;2023-03-01T11:27:24;0.65;;;0.40;;
50779;SDS011;36748;37.428;-121.972;2023-03-01T11:32:44;1.30;;;0.38;;
50779;SDS011;36748;37.428;-121.972;2023-03-01T11:35:26;1.25;;;0.57;;
50779;SDS011;36748;37.428;-121.972;2023-03-01T11:38:05;1.40;;;0.52;;
50779;SDS011;36748;37.428;-121.972;2023-03-01T11:40:41;1.05;;;0.40;;
50779;SDS011;36748;37.428;-121.972;2023-03-01T11:43:46;1.85;;;0.45;;
50779;SDS011;36748;37.428;-121.972;2023-03-01T11:54:13;1.02;;;0.50;;
50779;SDS011;36748;37.428;-121.972;2023-03-01T11:56:57;1.50;;;0.70;;
50779;SDS011;36748;37.428;-121.972;2023-03-01T12:04:35;0.93;;;0.55;;
50779;SDS011;36748;37.428;-121.972;2023-03-01T12:07:16;1.95;;;0.65;;
50779;SDS011;36748;37.428;-121.972;2023-03-01T12:15:43;0.90;;;0.50;;
50779;SDS011;36748;37.428;-121.972;2023-03-01T12:35:35;1.60;;;0.68;;
50779;SDS011;36748;37.428;-121.972;2023-03-01T12:51:40;0.80;;;0.47;;
50779;SDS011;36748;37.428;-121.972;2023-03-01T12:54:33;0.95;;;0.50;;
50779;SDS011;36748;37.428;-121.972;2023-03-01T12:57:13;0.75;;;0.40;;
50779;SDS011;36748;37.428;-121.972;2023-03-01T13:02:52;1.88;;;0.50;;
50779;SDS011;36748;37.428;-121.972;2023-03-01T13:05:26;1.10;;;0.57;;
50779;SDS011;36748;37.428;-121.972;2023-03-01T13:11:36;1.38;;;0.73;;
50779;SDS011;36748;37.428;-121.972;2023-03-01T13:16:53;0.80;;;0.40;;
50779;SDS011;36748;37.428;-121.972;2023-03-01T13:19:26;1.60;;;0.47;;
50779;SDS011;36748;37.428;-121.972;2023-03-01T13:22:24;1.38;;;0.50;;
50779;SDS011;36748;37.428;-121.972;2023-03-01T13:25:00;1.48;;;0.65;;
50779;SDS011;36748;37.428;-121.972;2023-03-01T13:27:29;0.98;;;0.47;;
50779;SDS011;36748;37.428;-121.972;2023-03-01T13:29:59;0.65;;;0.45;;
50779;SDS011;36748;37.428;-121.972;2023-03-01T13:32:29;0.93;;;0.43;;
50779;SDS011;36748;37.428;-121.972;2023-03-01T13:37:49;0.60;;;0.25;;
50779;SDS011;36748;37.428;-121.972;2023-03-01T13:42:44;0.93;;;0.40;;
50779;SDS011;36748;37.428;-121.972;2023-03-01T13:47:44;0.82;;;0.43;;
50779;SDS011;36748;37.428;-121.972;2023-03-01T13:50:23;0.70;;;0.40;;
50779;SDS011;36748;37.428;-121.972;2023-03-01T13:52:52;0.77;;;0.52;;
50779;SDS011;36748;37.428;-121.972;2023-03-01T14:01:00;0.30;;;0.20;;
50779;SDS011;36748;37.428;-121.972;2023-03-01T14:03:29;0.20;;;0.20;;
50779;SDS011;36748;37.428;-121.972;2023-03-01T14:06:01;0.70;;;0.22;;
50779;SDS011;36748;37.428;-121.972;2023-03-01T14:11:03;0.38;;;0.20;;
50779;SDS011;36748;37.428;-121.972;2023-03-01T14:13:54;0.30;;;0.20;;
50779;SDS011;36748;37.428;-121.972;2023-03-01T14:16:50;0.20;;;0.20;;
50779;SDS011;36748;37.428;-121.972;2023-03-01T14:19:30;0.45;;;0.22;;
50779;SDS011;36748;37.428;-121.972;2023-03-01T14:24:27;0.50;;;0.20;;
50779;SDS011;36748;37.428;-121.972;2023-03-01T14:26:53;0.30;;;0.30;;
50779;SDS011;36748;37.428;-121.972;2023-03-01T14:29:23;0.68;;;0.40;;
50779;SDS011;36748;37.428;-121.972;2023-03-01T14:31:53;1.38;;;0.30;;
50779;SDS011;36748;37.428;-121.972;2023-03-01T14:34:20;0.88;;;0.20;;
50779;SDS011;36748;37.428;-121.972;2023-03-01T14:36:48;0.50;;;0.30;;
50779;SDS011;36748;37.428;-121.972;2023-03-01T14:39:24;0.57;;;0.20;;
50779;SDS011;36748;37.428;-121.972;2023-03-01T14:41:54;0.45;;;0.30;;
50779;SDS011;36748;37.428;-121.972;2023-03-01T14:44:21;0.52;;;0.40;;
50779;SDS011;36748;37.428;-121.972;2023-03-01T14:46:51;0.43;;;0.35;;
50779;SDS011;36748;37.428;-121.972;2023-03-01T14:49:20;1.00;;;0.47;;
50779;SDS011;36748;37.428;-121.972;2023-03-01T14:52:07;0.85;;;0.32;;
50779;SDS011;36748;37.428;-121.972;2023-03-01T14:54:50;1.50;;;0.40;;
50779;SDS011;36748;37.428;-121.972;2023-03-01T14:57:23;1.08;;;0.47;;
50779;SDS011;36748;37.428;-121.972;2023-03-01T14:59:51;0.90;;;0.30;;
50779;SDS011;36748;37.428;-121.972;2023-03-01T15:02:23;1.25;;;0.50;;
50779;SDS011;36748;37.428;-121.972;2023-03-01T15:04:52;1.77;;;0.40;;
50779;SDS011;36748;37.428;-121.972;2023-03-01T15:07:26;0.90;;;0.50;;
50779;SDS011;36748;37.428;-121.972;2023-03-01T15:09:56;0.73;;;0.43;;
50779;SDS011;36748;37.428;-121.972;2023-03-01T15:12:32;1.40;;;0.60;;
50779;SDS011;36748;37.428;-121.972;2023-03-01T15:15:01;1.42;;;0.57;;
50779;SDS011;36748;37.428;-121.972;2023-03-01T15:17:32;0.60;;;0.30;;
50779;SDS011;36748;37.428;-121.972;2023-03-01T15:20:00;0.77;;;0.40;;
50779;SDS011;36748;37.428;-121.972;2023-03-01T15:22:29;3.42;;;0.70;;
50779;SDS011;36748;37.428;-121.972;2023-03-01T15:24:55;3.47;;;0.52;;
50779;SDS011;36748;37.428;-121.972;2023-03-01T15:27:22;1.52;;;0.75;;
50779;SDS011;36748;37.428;-121.972;2023-03-01T15:29:53;4.28;;;0.80;;
50779;SDS011;36748;37.428;-121.972;2023-03-01T15:34:58;0.63;;;0.32;;
50779;SDS011;36748;37.428;-121.972;2023-03-01T15:40:17;1.52;;;0.73;;
50779;SDS011;36748;37.428;-121.972;2023-03-01T15:42:55;2.30;;;0.80;;
50779;SDS011;36748;37.428;-121.972;2023-03-01T15:45:25;2.17;;;0.73;;
50779;SDS011;36748;37.428;-121.972;2023-03-01T15:47:57;2.83;;;0.90;;
50779;SDS011;36748;37.428;-121.972;2023-03-01T15:50:36;4.10;;;0.77;;
50779;SDS011;36748;37.428;-121.972;2023-03-01T15:53:06;4.63;;;0.90;;
50779;SDS011;36748;37.428;-121.972;2023-03-01T15:55:36;4.88;;;1.20;;
50779;SDS011;36748;37.428;-121.972;2023-03-01T16:00:30;4.72;;;1.00;;
50779;SDS011;36748;37.428;-121.972;2023-03-01T16:02:56;3.47;;;1.20;;
50779;SDS011;36748;37.428;-121.972;2023-03-01T16:05:24;3.70;;;1.10;;
50779;SDS011;36748;37.428;-121.972;2023-03-01T16:07:52;3.20;;;1.20;;
50779;SDS011;36748;37.428;-121.972;2023-03-01T16:10:19;1.17;;;0.73;;
50779;SDS011;36748;37.428;-121.972;2023-03-01T16:12:46;5.43;;;1.67;;
50779;SDS011;36748;37.428;-121.972;2023-03-01T16:15:18;3.40;;;1.13;;